Time;durP1;ratioP1;P1;durP2;ratioP2;P2;SDS_P1;SDS_P2;PMS_P1;PMS_P2;Temp;Humidity;BMP_temperature;BMP_pressure;BME280_temperature;BME280_humidity;BME280_pressure;Samples;Min_cycle;Max_cycle;Signal;HPM_P1;HPM_P2
2021/03/20 00:01:18;;;;;;;2.67;1.73;;;-1.20;99.90;;;;;;5027915;28;20277;-71
2021/03/20 00:03:44;;;;;;;3.77;2.40;;;-1.10;99.90;;;;;;5023419;28;20223;-71
2021/03/20 00:06:13;;;;;;;4.40;2.40;;;-1.20;99.90;;;;;;5030246;28;20313;-71
2021/03/20 00:08:40;;;;;;;2.80;1.60;;;-1.20;99.90;;;;;;5031559;28;20986;-72
2021/03/20 00:11:06;;;;;;;2.23;2.03;;;-1.10;99.90;;;;;;5031365;28;20797;-72
2021/03/20 00:13:33;;;;;;;5.00;2.60;;;-1.20;99.90;;;;;;5027499;28;20290;-72
2021/03/20 00:16:00;;;;;;;4.23;2.60;;;-1.20;99.90;;;;;;5031015;28;20257;-72
2021/03/20 00:18:29;;;;;;;3.47;2.20;;;-1.20;99.90;;;;;;5027526;28;20202;-71
2021/03/20 00:20:56;;;;;;;3.73;2.23;;;-1.20;99.90;;;;;;5022116;28;20215;-72
2021/03/20 00:23:23;;;;;;;4.23;2.50;;;-1.20;99.90;;;;;;5029816;28;20345;-71
2021/03/20 00:25:51;;;;;;;5.30;2.40;;;-1.20;99.90;;;;;;5027519;28;20297;-71
2021/03/20 00:28:21;;;;;;;6.13;2.40;;;-1.20;99.90;;;;;;5019695;28;20551;-75
2021/03/20 00:30:50;;;;;;;5.10;2.50;;;-1.20;99.90;;;;;;5028359;28;20687;-74
2021/03/20 00:33:18;;;;;;;3.80;2.43;;;-1.30;99.90;;;;;;5028719;28;20203;-73
2021/03/20 00:35:46;;;;;;;3.40;2.20;;;-1.20;99.90;;;;;;5028409;28;20205;-73
2021/03/20 00:38:14;;;;;;;4.63;2.23;;;-1.30;99.90;;;;;;5028305;28;20739;-74
2021/03/20 00:40:41;;;;;;;3.33;2.10;;;-1.20;99.90;;;;;;5033515;28;20198;-73
2021/03/20 00:43:09;;;;;;;4.13;2.10;;;-1.20;99.90;;;;;;5028635;28;20245;-72
2021/03/20 00:45:37;;;;;;;3.87;2.07;;;-1.20;99.90;;;;;;5028542;28;20754;-73
2021/03/20 00:48:07;;;;;;;3.93;2.07;;;-1.20;99.90;;;;;;5035087;28;20210;-72
2021/03/20 00:50:34;;;;;;;3.80;2.30;;;-1.20;99.90;;;;;;5031562;28;20203;-72
2021/03/20 00:53:01;;;;;;;2.83;2.00;;;-1.20;99.90;;;;;;5032754;28;20203;-71
2021/03/20 00:55:27;;;;;;;3.13;2.10;;;-1.20;99.90;;;;;;5036775;28;20210;-70
2021/03/20 00:57:54;;;;;;;5.30;1.97;;;-1.20;99.90;;;;;;5033766;28;20268;-72
2021/03/20 01:00:23;;;;;;;3.33;1.93;;;-1.20;99.90;;;;;;5036367;28;20276;-71
2021/03/20 01:02:49;;;;;;;3.87;2.37;;;-1.20;99.90;;;;;;5032528;28;20231;-71
2021/03/20 01:05:18;;;;;;;3.87;2.10;;;-1.20;99.90;;;;;;5028034;28;20774;-72
2021/03/20 01:07:45;;;;;;;2.97;2.00;;;-1.20;99.90;;;;;;5029347;28;20198;-71
2021/03/20 01:10:17;;;;;;;3.10;1.70;;;-1.20;99.90;;;;;;5030880;28;20210;-71
2021/03/20 01:12:43;;;;;;;2.13;1.80;;;-1.20;99.90;;;;;;5032451;28;20567;-72
2021/03/20 01:15:13;;;;;;;5.90;1.70;;;-1.20;99.90;;;;;;5032323;28;20314;-71
2021/03/20 01:17:40;;;;;;;3.30;1.90;;;-1.20;99.90;;;;;;5030154;28;20234;-71
2021/03/20 01:20:08;;;;;;;5.70;1.87;;;-1.20;99.90;;;;;;5031051;28;20672;-72
2021/03/20 01:22:34;;;;;;;2.90;1.60;;;-1.30;99.90;;;;;;5030692;28;20389;-71
2021/03/20 01:25:01;;;;;;;3.73;2.17;;;-1.30;99.90;;;;;;5028289;28;20295;-71
2021/03/20 01:27:29;;;;;;;3.20;2.20;;;-1.30;99.90;;;;;;5031839;28;20257;-72
2021/03/20 01:29:55;;;;;;;2.50;2.03;;;-1.30;99.90;;;;;;5033508;28;20293;-70
2021/03/20 01:32:22;;;;;;;5.50;3.07;;;-1.30;99.90;;;;;;5028131;28;20266;-71
2021/03/20 01:34:48;;;;;;;5.70;2.40;;;-1.40;99.90;;;;;;5024234;28;20672;-72
2021/03/20 01:37:15;;;;;;;3.20;2.30;;;-1.40;99.90;;;;;;5029053;28;20596;-72
2021/03/20 01:39:41;;;;;;;6.03;2.57;;;-1.40;99.90;;;;;;5031082;28;20203;-71
2021/03/20 01:42:09;;;;;;;2.83;2.50;;;-1.40;99.90;;;;;;5030678;28;20241;-70
2021/03/20 01:44:37;;;;;;;4.13;2.47;;;-1.40;99.90;;;;;;5031783;28;20230;-72
2021/03/20 01:47:09;;;;;;;6.13;2.37;;;-1.40;99.90;;;;;;5030417;28;20679;-72
2021/03/20 01:49:38;;;;;;;3.87;2.97;;;-1.40;99.90;;;;;;5025144;28;20322;-72
2021/03/20 01:52:18;;;;;;;3.20;2.10;;;-1.30;99.90;;;;;;5030700;28;20286;-72
2021/03/20 01:54:49;;;;;;;3.67;2.63;;;-1.20;99.90;;;;;;5033642;28;20221;-73
2021/03/20 01:57:21;;;;;;;3.90;2.67;;;-1.20;99.90;;;;;;5026400;28;20249;-72
2021/03/20 01:59:48;;;;;;;5.80;3.00;;;-1.20;99.90;;;;;;5031663;28;20707;-71
2021/03/20 02:02:15;;;;;;;4.73;2.40;;;-1.20;99.90;;;;;;5030961;28;20593;-73
2021/03/20 02:04:41;;;;;;;2.87;2.17;;;-1.20;99.90;;;;;;5035101;28;20240;-73
2021/03/20 02:07:08;;;;;;;3.53;2.37;;;-1.20;99.90;;;;;;5025680;28;20209;-73
2021/03/20 02:09:35;;;;;;;3.27;2.23;;;-1.10;99.90;;;;;;5035359;28;20769;-72
2021/03/20 02:12:13;;;;;;;3.40;2.30;;;-1.20;99.90;;;;;;5026467;28;20272;-72
2021/03/20 02:14:48;;;;;;;3.50;2.20;;;-1.10;99.90;;;;;;5033585;28;20314;-72
2021/03/20 02:17:29;;;;;;;4.93;2.37;;;-1.10;99.90;;;;;;5023958;28;20199;-72
2021/03/20 02:20:25;;;;;;;4.87;2.40;;;-1.10;99.90;;;;;;5027888;28;20301;-72
2021/03/20 02:23:35;;;;;;;5.97;3.10;;;-1.20;99.90;;;;;;5007840;28;20231;-72
2021/03/20 02:26:46;;;;;;;4.83;2.33;;;-1.10;99.90;;;;;;5027104;28;20326;-72
2021/03/20 02:29:34;;;;;;;4.27;2.70;;;-1.10;99.90;;;;;;5024149;28;20283;-73
2021/03/20 02:32:26;;;;;;;4.97;2.50;;;-1.10;99.90;;;;;;5032764;28;20289;-72
2021/03/20 02:35:02;;;;;;;6.43;2.50;;;-1.10;99.90;;;;;;5025363;28;20249;-73
2021/03/20 02:37:38;;;;;;;4.30;2.60;;;-1.10;99.90;;;;;;5034356;28;20285;-73
2021/03/20 02:40:11;;;;;;;3.47;2.40;;;-1.10;99.90;;;;;;5023533;28;20221;-73
2021/03/20 02:42:45;;;;;;;4.27;2.70;;;-1.10;99.90;;;;;;5030148;28;20272;-72
2021/03/20 02:45:23;;;;;;;5.83;2.90;;;-1.10;99.90;;;;;;5032864;28;20573;-73
2021/03/20 02:47:59;;;;;;;4.20;2.50;;;-1.10;99.90;;;;;;5029003;28;20270;-72
2021/03/20 02:50:35;;;;;;;3.90;2.10;;;-1.10;99.90;;;;;;5028255;28;20206;-73
2021/03/20 02:53:07;;;;;;;6.33;3.00;;;-1.10;99.90;;;;;;5030018;28;20565;-73
2021/03/20 02:55:36;;;;;;;5.93;2.57;;;-1.10;99.90;;;;;;5027478;28;20294;-72
2021/03/20 02:58:08;;;;;;;5.17;2.63;;;-1.00;99.90;;;;;;5030631;28;20217;-73
2021/03/20 03:00:38;;;;;;;4.83;2.87;;;-1.00;99.90;;;;;;5031327;28;20438;-73
2021/03/20 03:03:07;;;;;;;5.90;2.43;;;-1.00;99.90;;;;;;5026978;28;20310;-72
2021/03/20 03:05:38;;;;;;;7.27;2.53;;;-1.00;99.90;;;;;;5030029;28;20338;-73
2021/03/20 03:08:11;;;;;;;4.67;2.27;;;-1.00;99.90;;;;;;5030705;28;20262;-72
2021/03/20 03:10:42;;;;;;;4.63;2.70;;;-1.00;99.90;;;;;;5023132;28;20208;-73
2021/03/20 03:13:12;;;;;;;4.83;2.30;;;-0.90;99.90;;;;;;5025163;28;20207;-72
2021/03/20 03:15:42;;;;;;;6.67;2.30;;;-0.90;99.90;;;;;;5027069;28;20254;-73
2021/03/20 03:18:12;;;;;;;7.93;2.73;;;-0.90;99.90;;;;;;5020717;28;20229;-73
2021/03/20 03:20:45;;;;;;;5.10;2.60;;;-0.90;99.90;;;;;;5030172;28;20203;-73
2021/03/20 03:23:16;;;;;;;3.77;2.37;;;-0.90;99.90;;;;;;5027118;28;20219;-72
2021/03/20 03:25:46;;;;;;;5.33;2.53;;;-1.00;99.90;;;;;;5030883;28;20324;-73
2021/03/20 03:28:17;;;;;;;3.37;2.27;;;-0.90;99.90;;;;;;5028252;28;20230;-73
2021/03/20 03:30:43;;;;;;;4.07;2.10;;;-1.00;99.90;;;;;;5023518;28;20230;-73
2021/03/20 03:33:17;;;;;;;6.90;2.90;;;-1.00;99.90;;;;;;5029216;28;20653;-74
2021/03/20 03:35:48;;;;;;;5.47;2.97;;;-1.00;99.90;;;;;;5029259;28;20567;-74
2021/03/20 03:38:23;;;;;;;5.10;2.67;;;-1.00;99.90;;;;;;5030964;28;20198;-73
2021/03/20 03:40:56;;;;;;;5.27;2.77;;;-1.00;99.90;;;;;;5028346;28;20202;-73
2021/03/20 03:43:23;;;;;;;7.47;2.57;;;-0.90;99.90;;;;;;5028273;28;20313;-73
2021/03/20 03:45:50;;;;;;;4.93;2.30;;;-1.00;99.90;;;;;;5029477;28;20264;-73
2021/03/20 03:48:19;;;;;;;8.57;2.93;;;-1.10;99.90;;;;;;5027483;28;20284;-72
2021/03/20 03:50:47;;;;;;;6.67;2.73;;;-1.10;99.90;;;;;;5025152;28;20211;-73
2021/03/20 03:53:16;;;;;;;7.30;2.83;;;-1.00;99.90;;;;;;5030401;28;20210;-72
2021/03/20 03:55:43;;;;;;;4.67;2.70;;;-1.00;99.90;;;;;;5028451;28;20202;-73
2021/03/20 03:58:29;;;;;;;4.87;3.00;;;-1.00;99.90;;;;;;5031837;28;20255;-73
2021/03/20 04:01:00;;;;;;;5.27;3.17;;;-1.10;99.90;;;;;;5032394;28;20222;-72
2021/03/20 04:03:42;;;;;;;3.57;2.30;;;-1.10;99.90;;;;;;5027640;28;20632;-72
2021/03/20 04:06:23;;;;;;;7.03;2.80;;;-1.20;99.90;;;;;;5030416;28;20237;-73
2021/03/20 04:09:02;;;;;;;5.53;2.83;;;-1.20;99.90;;;;;;5030254;28;20297;-73
2021/03/20 04:11:34;;;;;;;4.67;2.40;;;-1.30;99.90;;;;;;5033330;28;20664;-74
2021/03/20 04:14:07;;;;;;;5.83;2.70;;;-1.30;99.90;;;;;;5028420;28;20309;-72
2021/03/20 04:16:41;;;;;;;3.67;2.37;;;-1.40;99.90;;;;;;5033553;28;20225;-73
2021/03/20 04:19:16;;;;;;;5.13;2.70;;;-1.30;99.90;;;;;;5031912;28;20306;-72
2021/03/20 04:21:50;;;;;;;7.27;3.30;;;-1.50;99.90;;;;;;5023711;28;20303;-73
2021/03/20 04:24:21;;;;;;;7.70;3.20;;;-1.50;99.90;;;;;;5034148;28;20234;-73
2021/03/20 04:26:51;;;;;;;6.83;2.97;;;-1.50;99.90;;;;;;5036352;28;20214;-73
2021/03/20 04:29:28;;;;;;;4.97;3.33;;;-1.50;99.90;;;;;;5027512;28;20207;-74
2021/03/20 04:31:59;;;;;;;5.33;2.77;;;-1.50;99.90;;;;;;5034307;28;20210;-73
2021/03/20 04:34:30;;;;;;;5.47;3.10;;;-1.40;99.90;;;;;;5035019;28;20198;-74
2021/03/20 04:37:05;;;;;;;6.63;3.30;;;-1.40;99.90;;;;;;5027654;28;20253;-73
2021/03/20 04:39:37;;;;;;;7.43;3.17;;;-1.40;99.90;;;;;;5030268;28;20349;-74
2021/03/20 04:42:04;;;;;;;7.00;3.20;;;-1.40;99.90;;;;;;5030990;28;20674;-73
2021/03/20 04:44:35;;;;;;;6.87;3.60;;;-1.40;99.90;;;;;;5030425;28;20289;-72
2021/03/20 04:47:02;;;;;;;4.87;3.30;;;-1.40;99.90;;;;;;5030919;28;20203;-73
2021/03/20 04:49:43;;;;;;;5.37;3.37;;;-1.50;99.90;;;;;;5033066;28;20309;-72
2021/03/20 04:52:15;;;;;;;4.47;2.93;;;-1.50;99.90;;;;;;5030346;28;20241;-73
2021/03/20 04:54:41;;;;;;;5.87;3.03;;;-1.50;99.90;;;;;;5029507;28;20264;-73
2021/03/20 04:57:33;;;;;;;4.37;2.40;;;-1.50;99.90;;;;;;5026608;28;20306;-72
2021/03/20 05:00:07;;;;;;;7.10;2.73;;;-1.50;99.90;;;;;;5013740;28;20250;-73
2021/03/20 05:02:39;;;;;;;7.97;3.07;;;-1.50;99.90;;;;;;5030721;28;20309;-73
2021/03/20 05:05:17;;;;;;;6.57;3.17;;;-1.50;99.90;;;;;;5023520;28;20319;-73
2021/03/20 05:07:44;;;;;;;3.87;2.53;;;-1.50;99.90;;;;;;5028098;28;20202;-73
2021/03/20 05:10:21;;;;;;;4.00;2.73;;;-1.50;99.90;;;;;;5030697;28;20330;-72
2021/03/20 05:12:50;;;;;;;7.17;2.87;;;-1.50;99.90;;;;;;5028471;28;20289;-72
2021/03/20 05:15:24;;;;;;;5.10;2.90;;;-1.40;99.90;;;;;;5035186;28;20318;-72
2021/03/20 05:17:50;;;;;;;6.50;3.20;;;-1.40;99.90;;;;;;5031008;28;20214;-72
2021/03/20 05:20:18;;;;;;;4.80;2.60;;;-1.40;99.90;;;;;;5036474;28;20238;-73
2021/03/20 05:22:44;;;;;;;8.40;3.23;;;-1.30;99.90;;;;;;5030273;28;20276;-73
2021/03/20 05:25:14;;;;;;;6.40;3.00;;;-1.30;99.90;;;;;;5024853;28;20271;-73
2021/03/20 05:27:41;;;;;;;3.77;2.40;;;-1.20;99.90;;;;;;5030618;28;20622;-73
2021/03/20 05:30:08;;;;;;;4.47;2.67;;;-1.20;99.90;;;;;;5031268;28;20293;-73
2021/03/20 05:32:35;;;;;;;5.10;2.70;;;-1.20;99.90;;;;;;5034486;28;20207;-73
2021/03/20 05:35:06;;;;;;;6.30;2.93;;;-1.10;99.90;;;;;;5025842;28;20348;-74
2021/03/20 05:37:36;;;;;;;5.00;2.90;;;-1.10;99.90;;;;;;5032497;28;20203;-73
2021/03/20 05:40:04;;;;;;;6.87;2.93;;;-1.10;99.90;;;;;;5032434;28;20729;-72
2021/03/20 05:42:48;;;;;;;6.23;2.93;;;-1.10;99.90;;;;;;5036573;28;20222;-73
2021/03/20 05:45:25;;;;;;;8.27;2.63;;;-1.10;99.90;;;;;;5026600;28;20652;-73
2021/03/20 05:48:04;;;;;;;5.57;3.10;;;-1.10;99.90;;;;;;5029431;28;20236;-72
2021/03/20 05:50:45;;;;;;;4.57;2.73;;;-1.10;99.90;;;;;;5030842;28;20285;-72
2021/03/20 05:53:33;;;;;;;6.50;3.00;;;-1.00;99.90;;;;;;5030531;28;20199;-73
2021/03/20 05:56:02;;;;;;;4.03;2.50;;;-1.00;99.90;;;;;;5028577;28;20644;-71
2021/03/20 05:58:52;;;;;;;5.30;2.77;;;-1.00;99.90;;;;;;5031772;28;20301;-72
2021/03/20 06:01:28;;;;;;;5.00;2.80;;;-1.00;99.90;;;;;;5032045;28;20207;-73
2021/03/20 06:04:19;;;;;;;4.97;2.40;;;-1.00;99.90;;;;;;5033389;28;20679;-73
2021/03/20 06:07:01;;;;;;;4.13;2.50;;;-0.90;99.90;;;;;;5029873;28;20214;-72
2021/03/20 06:09:36;;;;;;;3.50;2.60;;;-0.90;99.90;;;;;;5031389;28;20543;-73
2021/03/20 06:12:15;;;;;;;4.40;2.83;;;-0.80;99.90;;;;;;5032396;28;20215;-73
2021/03/20 06:14:57;;;;;;;6.77;2.90;;;-0.80;99.90;;;;;;5026794;28;20233;-72
2021/03/20 06:17:38;;;;;;;5.70;2.87;;;-0.70;99.90;;;;;;5034243;28;20298;-71
2021/03/20 06:20:33;;;;;;;7.40;2.70;;;-0.70;99.90;;;;;;5024858;28;20379;-73
2021/03/20 06:23:36;;;;;;;5.73;2.70;;;-0.70;99.90;;;;;;5034868;28;20218;-74
2021/03/20 06:26:09;;;;;;;5.33;2.97;;;-0.70;99.90;;;;;;5034006;28;20249;-72
2021/03/20 06:28:39;;;;;;;6.97;3.20;;;-0.70;99.90;;;;;;5028170;28;20547;-73
2021/03/20 06:31:14;;;;;;;5.53;2.90;;;-0.60;99.90;;;;;;5030606;28;20210;-72
2021/03/20 06:33:47;;;;;;;3.67;2.87;;;-0.60;99.90;;;;;;5031368;28;20205;-72
2021/03/20 06:36:19;;;;;;;7.03;3.20;;;-0.50;99.90;;;;;;5027502;28;20690;-73
2021/03/20 06:38:50;;;;;;;6.10;2.73;;;-0.50;99.90;;;;;;5026709;28;20260;-74
2021/03/20 06:41:24;;;;;;;6.13;2.93;;;-0.40;99.90;;;;;;5033924;28;20274;-73
2021/03/20 06:43:54;;;;;;;5.10;3.00;;;-0.40;99.90;;;;;;5029422;28;20291;-73
2021/03/20 06:46:23;;;;;;;4.87;2.83;;;-0.30;99.90;;;;;;5033910;28;20684;-74
2021/03/20 06:48:49;;;;;;;5.13;2.90;;;-0.30;99.90;;;;;;5030357;28;20298;-73
2021/03/20 06:51:16;;;;;;;5.60;3.60;;;-0.30;99.90;;;;;;5034251;28;20651;-72
2021/03/20 06:53:48;;;;;;;9.27;3.80;;;-0.30;99.90;;;;;;5028947;28;20285;-72
2021/03/20 06:56:18;;;;;;;7.13;3.47;;;-0.20;99.90;;;;;;5030689;28;20229;-73
2021/03/20 06:58:45;;;;;;;8.70;4.87;;;-0.10;99.60;;;;;;5026816;28;20227;-74
2021/03/20 07:01:38;;;;;;;5.80;3.63;;;0.00;99.40;;;;;;5025051;28;20731;-73
2021/03/20 07:04:30;;;;;;;5.53;4.00;;;0.10;98.70;;;;;;5029477;28;20265;-73
2021/03/20 07:07:24;;;;;;;6.27;3.87;;;0.20;98.20;;;;;;5019054;28;20241;-73
2021/03/20 07:09:53;;;;;;;6.37;3.47;;;0.30;98.00;;;;;;5026920;28;20289;-74
2021/03/20 07:12:22;;;;;;;5.47;3.20;;;0.50;97.60;;;;;;5029129;28;20210;-73
2021/03/20 07:14:52;;;;;;;6.60;3.37;;;0.70;97.30;;;;;;5028731;28;20322;-72
2021/03/20 07:17:42;;;;;;;6.13;3.50;;;0.70;96.60;;;;;;5034290;28;20278;-73
2021/03/20 07:20:11;;;;;;;7.30;3.07;;;0.90;96.00;;;;;;5030505;28;20211;-71
2021/03/20 07:22:42;;;;;;;4.97;2.97;;;1.00;95.60;;;;;;5028899;28;20286;-72
2021/03/20 07:25:26;;;;;;;6.47;3.07;;;1.00;95.40;;;;;;5032195;28;20242;-70
2021/03/20 07:28:06;;;;;;;3.57;2.60;;;1.10;94.80;;;;;;5024351;28;20207;-72
2021/03/20 07:30:36;;;;;;;4.67;2.47;;;1.30;94.00;;;;;;5026407;28;20252;-71
2021/03/20 07:33:22;;;;;;;4.90;2.90;;;1.30;93.30;;;;;;5030845;28;20643;-71
2021/03/20 07:35:48;;;;;;;5.17;3.00;;;1.30;92.80;;;;;;5022520;28;20668;-73
2021/03/20 07:38:21;;;;;;;6.23;2.70;;;1.30;92.40;;;;;;5030058;28;20214;-73
2021/03/20 07:40:48;;;;;;;4.67;3.03;;;1.30;92.60;;;;;;5029789;28;20241;-73
2021/03/20 07:43:18;;;;;;;4.67;2.83;;;1.30;92.20;;;;;;5022002;28;20644;-76
2021/03/20 07:45:47;;;;;;;4.93;2.97;;;1.40;92.20;;;;;;5026868;28;20202;-73
2021/03/20 07:48:24;;;;;;;3.67;2.53;;;1.50;91.80;;;;;;5029189;28;20207;-74
2021/03/20 07:51:03;;;;;;;5.97;3.20;;;1.60;91.30;;;;;;5026668;28;20647;-77
2021/03/20 07:53:31;;;;;;;7.87;3.53;;;1.60;91.10;;;;;;5023834;28;20574;-74
2021/03/20 07:56:06;;;;;;;7.03;3.23;;;1.70;90.60;;;;;;5029063;28;20230;-74
2021/03/20 07:58:42;;;;;;;4.43;2.83;;;1.80;90.00;;;;;;5032319;28;20300;-77
2021/03/20 08:01:14;;;;;;;8.40;3.67;;;1.80;89.20;;;;;;5032572;28;20220;-73
2021/03/20 08:03:51;;;;;;;6.17;3.10;;;1.80;89.20;;;;;;5032548;28;20321;-77
2021/03/20 08:06:19;;;;;;;5.80;3.00;;;1.90;88.90;;;;;;5035808;28;20204;-75
2021/03/20 08:08:46;;;;;;;5.03;3.27;;;2.00;89.10;;;;;;5037223;28;20265;-73
2021/03/20 08:11:31;;;;;;;6.70;3.60;;;2.20;88.00;;;;;;5030397;28;20212;-75
2021/03/20 08:14:05;;;;;;;5.40;2.87;;;2.40;86.80;;;;;;5037989;28;20290;-76
2021/03/20 08:16:32;;;;;;;6.67;3.50;;;2.60;85.60;;;;;;5032853;28;20655;-76
2021/03/20 08:18:59;;;;;;;7.60;3.90;;;2.80;83.10;;;;;;5030413;28;20648;-77
2021/03/20 08:22:07;;;;;;;8.77;4.10;;;3.00;82.50;;;;;;5033286;28;20230;-76
2021/03/20 08:24:55;;;;;;;7.30;3.70;;;3.20;81.50;;;;;;5036564;28;20215;-74
2021/03/20 08:27:40;;;;;;;6.77;3.47;;;3.40;79.50;;;;;;5031661;28;21502;-76
2021/03/20 08:30:24;;;;;;;5.37;3.47;;;3.50;78.40;;;;;;5034747;28;20226;-74
2021/03/20 08:33:11;;;;;;;5.37;2.93;;;3.70;76.50;;;;;;5032830;28;20206;-74
2021/03/20 08:35:49;;;;;;;5.33;3.33;;;3.90;74.90;;;;;;5032460;28;20202;-73
2021/03/20 08:38:35;;;;;;;6.43;3.43;;;4.10;73.70;;;;;;5039055;28;20218;-73
2021/03/20 08:41:09;;;;;;;6.10;3.50;;;4.10;72.20;;;;;;5040181;28;20229;-76
2021/03/20 08:44:12;;;;;;;6.00;3.00;;;4.20;71.10;;;;;;5036892;28;20261;-77
2021/03/20 08:47:05;;;;;;;4.70;2.70;;;4.40;69.80;;;;;;5034486;28;20363;-73
2021/03/20 08:49:48;;;;;;;8.13;2.97;;;4.60;68.40;;;;;;5016722;28;20208;-73
2021/03/20 08:52:23;;;;;;;6.30;3.27;;;4.70;67.40;;;;;;5030977;28;20266;-75
2021/03/20 08:55:12;;;;;;;7.03;3.20;;;4.80;65.50;;;;;;5028455;28;20261;-74
2021/03/20 08:57:46;;;;;;;6.23;3.10;;;4.90;65.10;;;;;;5029860;28;20631;-75
2021/03/20 09:00:20;;;;;;;4.40;2.83;;;5.10;65.10;;;;;;5029561;28;20208;-74
2021/03/20 09:02:51;;;;;;;5.83;3.10;;;5.30;64.30;;;;;;5034981;28;20288;-74
2021/03/20 09:05:31;;;;;;;5.57;3.27;;;5.50;63.20;;;;;;5033616;28;20238;-73
2021/03/20 09:08:01;;;;;;;5.07;3.20;;;5.60;62.20;;;;;;5034256;28;20663;-74
2021/03/20 09:10:33;;;;;;;6.30;2.83;;;5.90;60.80;;;;;;5034613;28;20207;-73
2021/03/20 09:13:11;;;;;;;5.43;3.03;;;6.20;59.20;;;;;;5031748;28;20203;-72
2021/03/20 09:15:41;;;;;;;4.63;2.80;;;6.30;58.20;;;;;;5030494;28;20294;-74
2021/03/20 09:18:11;;;;;;;6.33;3.40;;;6.50;57.40;;;;;;5024272;28;20231;-75
2021/03/20 09:20:44;;;;;;;5.00;2.90;;;6.80;57.30;;;;;;5030454;28;21752;-74
2021/03/20 09:23:21;;;;;;;4.37;2.97;;;7.20;56.20;;;;;;5030309;28;20219;-74
2021/03/20 09:25:54;;;;;;;5.10;2.80;;;7.70;54.20;;;;;;5033866;28;20214;-74
2021/03/20 09:28:28;;;;;;;5.80;3.20;;;8.40;54.10;;;;;;5029911;28;20333;-73
2021/03/20 09:31:01;;;;;;;4.10;2.63;;;9.20;50.00;;;;;;5029843;28;20202;-73
2021/03/20 09:33:40;;;;;;;4.40;2.23;;;10.00;48.20;;;;;;5031122;28;20632;-74
2021/03/20 09:36:10;;;;;;;3.77;2.37;;;11.50;45.60;;;;;;5034629;28;20579;-72
2021/03/20 09:38:47;;;;;;;5.50;2.87;;;12.70;42.00;;;;;;5035108;28;20206;-73
2021/03/20 09:41:33;;;;;;;6.77;2.70;;;13.60;40.70;;;;;;5029795;28;20264;-74
2021/03/20 09:44:22;;;;;;;4.43;2.60;;;15.00;38.00;;;;;;5033145;28;20580;-74
2021/03/20 09:46:53;;;;;;;3.53;2.10;;;16.10;36.50;;;;;;5033053;28;20305;-72
2021/03/20 09:49:55;;;;;;;3.00;1.90;;;16.90;34.30;;;;;;5031568;28;20207;-71
2021/03/20 09:52:50;;;;;;;2.50;1.77;;;18.10;32.10;;;;;;5030950;28;20337;-72
2021/03/20 09:55:48;;;;;;;3.70;2.27;;;18.50;31.70;;;;;;4994982;28;20271;-72
2021/03/20 09:58:42;;;;;;;2.17;1.93;;;18.70;30.10;;;;;;5030922;28;20556;-74
2021/03/20 10:01:19;;;;;;;4.33;2.20;;;18.20;29.80;;;;;;5021205;28;20215;-73
2021/03/20 10:04:24;;;;;;;4.30;2.57;;;18.30;29.90;;;;;;5029102;28;20253;-74
2021/03/20 10:07:21;;;;;;;3.93;2.30;;;18.70;29.80;;;;;;5034191;28;20753;-73
2021/03/20 10:09:55;;;;;;;4.77;2.70;;;18.90;28.90;;;;;;5028969;28;20268;-72
2021/03/20 10:12:25;;;;;;;4.60;2.30;;;18.70;29.70;;;;;;5033434;28;20218;-75
2021/03/20 10:15:15;;;;;;;3.37;1.63;;;18.90;29.00;;;;;;5029031;28;21013;-74
2021/03/20 10:18:20;;;;;;;3.40;2.20;;;19.00;28.80;;;;;;5033886;28;20305;-73
2021/03/20 10:20:56;;;;;;;3.07;2.17;;;19.40;27.80;;;;;;5032929;28;20682;-73
2021/03/20 10:23:38;;;;;;;3.60;2.10;;;19.80;28.00;;;;;;5031911;28;20268;-73
2021/03/20 10:26:15;;;;;;;3.90;2.53;;;20.20;26.80;;;;;;5026304;28;20225;-73
2021/03/20 10:28:45;;;;;;;3.20;2.30;;;19.80;27.40;;;;;;5034524;28;20289;-73
2021/03/20 10:31:14;;;;;;;4.00;2.17;;;20.70;27.10;;;;;;5030879;28;20675;-73
2021/03/20 10:33:42;;;;;;;3.92;2.17;;;23.00;27.90;;;;;;5034179;28;20217;-73
2021/03/20 10:36:18;;;;;;;3.72;2.10;;;25.60;24.60;;;;;;5031464;28;20611;-72
2021/03/20 10:38:47;;;;;;;3.55;1.90;;;26.60;23.60;;;;;;5028585;28;20198;-71
2021/03/20 10:41:21;;;;;;;4.47;2.05;;;27.10;22.80;;;;;;5029912;28;20215;-74
2021/03/20 10:43:51;;;;;;;4.50;1.77;;;27.80;22.80;;;;;;5020152;28;20219;-76
2021/03/20 10:46:19;;;;;;;3.15;1.83;;;28.70;22.20;;;;;;5030575;28;20640;-75
2021/03/20 10:48:47;;;;;;;3.40;2.15;;;28.90;21.80;;;;;;5025063;28;20212;-74
2021/03/20 10:51:14;;;;;;;5.70;2.10;;;29.10;21.60;;;;;;5021744;28;20218;-72
2021/03/20 10:53:44;;;;;;;3.03;2.22;;;29.70;21.40;;;;;;5029364;28;20253;-72
2021/03/20 10:56:28;;;;;;;2.97;2.05;;;29.70;20.90;;;;;;5019599;28;20207;-73
2021/03/20 10:58:54;;;;;;;3.13;1.98;;;27.80;20.20;;;;;;5033307;28;20543;-75
2021/03/20 11:01:32;;;;;;;2.45;1.95;;;25.50;20.70;;;;;;5021649;28;20211;-72
2021/03/20 11:03:59;;;;;;;3.72;1.90;;;22.90;21.20;;;;;;5023887;28;20285;-69
2021/03/20 11:06:27;;;;;;;2.67;2.17;;;20.40;22.10;;;;;;5032739;28;20257;-76
2021/03/20 11:09:12;;;;;;;3.72;1.73;;;19.40;24.80;;;;;;5037557;28;20213;-75
2021/03/20 11:11:41;;;;;;;5.50;2.40;;;19.10;24.40;;;;;;5025673;28;20198;-74
2021/03/20 11:14:10;;;;;;;2.88;2.00;;;19.20;24.60;;;;;;5031874;28;20226;-74
2021/03/20 11:16:45;;;;;;;5.27;2.20;;;18.50;24.20;;;;;;5027178;28;20773;-75
2021/03/20 11:19:21;;;;;;;3.13;1.90;;;17.50;24.50;;;;;;5034593;28;20214;-74
2021/03/20 11:21:50;;;;;;;3.77;1.70;;;16.30;24.90;;;;;;5031670;28;20206;-73
2021/03/20 11:24:23;;;;;;;5.70;2.03;;;15.20;25.20;;;;;;5015932;28;20342;-74
2021/03/20 11:26:52;;;;;;;2.13;1.77;;;14.10;26.00;;;;;;5027578;28;20202;-73
2021/03/20 11:29:21;;;;;;;2.17;1.60;;;13.30;27.00;;;;;;5023366;28;20207;-74
2021/03/20 11:31:53;;;;;;;4.30;1.40;;;12.70;27.50;;;;;;5025924;28;20667;-72
2021/03/20 11:34:26;;;;;;;3.37;1.73;;;12.80;28.90;;;;;;5029823;28;20207;-73
2021/03/20 11:36:55;;;;;;;4.00;1.80;;;13.80;29.30;;;;;;5023055;28;20256;-74
2021/03/20 11:39:22;;;;;;;3.20;1.80;;;15.10;27.50;;;;;;5029230;28;20569;-74
2021/03/20 11:41:58;;;;;;;2.40;1.30;;;15.10;26.30;;;;;;5021356;28;20274;-74
2021/03/20 11:44:27;;;;;;;2.83;1.83;;;14.50;26.30;;;;;;5027489;28;20214;-75
2021/03/20 11:46:56;;;;;;;3.67;2.60;;;13.70;26.00;;;;;;5027823;28;20297;-74
2021/03/20 11:49:27;;;;;;;3.23;2.10;;;13.10;26.50;;;;;;5028742;28;20641;-74
2021/03/20 11:51:55;;;;;;;3.30;2.43;;;12.50;26.80;;;;;;5024614;28;20289;-75
2021/03/20 11:54:28;;;;;;;5.13;2.77;;;12.00;27.20;;;;;;5024473;28;20663;-76
2021/03/20 11:56:59;;;;;;;6.23;3.60;;;11.50;27.70;;;;;;5033117;28;20218;-77
2021/03/20 11:59:39;;;;;;;9.30;4.90;;;10.90;28.10;;;;;;5035075;28;20679;-77
2021/03/20 12:02:07;;;;;;;6.13;4.50;;;10.40;28.60;;;;;;5020488;28;20322;-77
2021/03/20 12:04:34;;;;;;;4.17;2.93;;;10.00;29.10;;;;;;5026719;28;20243;-77
2021/03/20 12:07:27;;;;;;;5.37;2.73;;;9.60;29.70;;;;;;5031350;28;20294;-79
2021/03/20 12:09:54;;;;;;;2.83;1.70;;;9.20;30.20;;;;;;5023133;28;20222;-76
2021/03/20 12:12:45;;;;;;;3.50;1.80;;;8.80;30.60;;;;;;5030587;28;20211;-77
2021/03/20 12:15:25;;;;;;;2.60;1.67;;;8.40;32.00;;;;;;5028866;28;20238;-77
2021/03/20 12:17:53;;;;;;;2.83;1.80;;;7.90;33.30;;;;;;5032029;28;20511;-77
2021/03/20 12:20:41;;;;;;;2.87;1.70;;;7.40;33.10;;;;;;5027599;28;20271;-77
2021/03/20 12:23:16;;;;;;;2.97;1.70;;;6.90;35.30;;;;;;5025992;28;20247;-77
2021/03/20 12:25:52;;;;;;;4.13;2.23;;;6.60;36.00;;;;;;5031169;28;20265;-77
2021/03/20 12:28:43;;;;;;;3.63;2.13;;;6.20;35.50;;;;;;5027539;28;20606;-77
2021/03/20 12:31:27;;;;;;;7.73;2.10;;;6.00;37.80;;;;;;5028650;28;20701;-77
2021/03/20 12:33:59;;;;;;;4.77;2.50;;;6.10;38.20;;;;;;5028448;28;20207;-77
2021/03/20 12:36:36;;;;;;;3.37;1.73;;;6.10;37.70;;;;;;5035892;28;20198;-77
2021/03/20 12:39:06;;;;;;;4.50;2.00;;;6.10;37.20;;;;;;5026572;28;20234;-75
2021/03/20 12:41:34;;;;;;;2.20;1.77;;;6.10;37.90;;;;;;5032062;28;20221;-75
2021/03/20 12:44:15;;;;;;;3.70;1.90;;;6.20;37.70;;;;;;5025426;28;20231;-75
2021/03/20 12:46:44;;;;;;;4.07;2.03;;;6.30;37.30;;;;;;5029835;28;20202;-74
2021/03/20 12:49:16;;;;;;;3.30;1.70;;;6.30;36.90;;;;;;5033241;28;20241;-73
2021/03/20 12:51:43;;;;;;;2.67;1.90;;;6.10;36.60;;;;;;5027756;28;20302;-75
2021/03/20 12:54:20;;;;;;;6.17;1.70;;;5.90;37.20;;;;;;5034730;28;20259;-74
2021/03/20 12:56:46;;;;;;;3.00;1.87;;;5.80;37.10;;;;;;5027444;28;20235;-75
2021/03/20 12:59:14;;;;;;;3.23;1.70;;;5.70;36.50;;;;;;5032093;28;20238;-78
2021/03/20 13:01:40;;;;;;;3.00;1.70;;;5.70;36.20;;;;;;5032620;28;20213;-79
2021/03/20 13:04:10;;;;;;;3.60;2.07;;;5.70;35.80;;;;;;5037080;28;20242;-80
2021/03/20 13:06:37;;;;;;;3.43;2.10;;;5.50;35.70;;;;;;5034776;28;20722;-77
2021/03/20 13:09:04;;;;;;;3.40;2.30;;;5.30;36.00;;;;;;5036643;28;20301;-79
2021/03/20 13:11:31;;;;;;;3.10;1.80;;;5.10;36.10;;;;;;5038549;28;20217;-76
2021/03/20 13:13:57;;;;;;;3.53;1.70;;;4.80;36.30;;;;;;5031349;28;20235;-80
2021/03/20 13:16:25;;;;;;;3.00;1.63;;;4.60;36.90;;;;;;5026698;28;20206;-72
2021/03/20 13:18:52;;;;;;;2.73;1.70;;;4.50;37.40;;;;;;5033466;28;20639;-77
2021/03/20 13:21:19;;;;;;;5.20;1.70;;;4.40;36.60;;;;;;5039218;28;20206;-77
2021/03/20 13:23:45;;;;;;;4.80;2.10;;;4.40;36.30;;;;;;5035884;28;20266;-77
2021/03/20 13:26:12;;;;;;;3.80;1.60;;;4.30;36.30;;;;;;5032390;28;20297;-75